createdAt,value
2018-10-11T00:00:49.576Z,64.03
2018-10-11T00:03:18.875Z,63.73
2018-10-11T00:05:48.020Z,61.77
2018-10-11T00:08:17.172Z,58.90
2018-10-11T00:10:46.416Z,60.10
2018-10-11T00:13:15.514Z,62.03
2018-10-11T00:15:44.635Z,61.33
2018-10-11T00:18:13.831Z,59.77
2018-10-11T00:20:42.983Z,60.63
2018-10-11T00:23:12.101Z,60.00
2018-10-11T00:25:41.277Z,60.17
2018-10-11T00:28:10.396Z,61.30
2018-10-11T00:30:39.592Z,60.60
2018-10-11T00:33:08.764Z,60.83
2018-10-11T00:35:37.956Z,63.17
2018-10-11T00:38:07.220Z,59.93
2018-10-11T00:40:36.380Z,61.20
2018-10-11T00:43:05.540Z,62.23
2018-10-11T00:45:34.701Z,64.90
2018-10-11T00:48:03.860Z,62.40
2018-10-11T00:50:33.012Z,63.43
2018-10-11T00:53:02.175Z,64.30
2018-10-11T00:55:31.317Z,63.43
2018-10-11T00:58:00.461Z,59.23
2018-10-11T01:00:29.636Z,58.53
2018-10-11T01:02:58.759Z,60.50
2018-10-11T01:05:27.886Z,61.17
2018-10-11T01:07:57.100Z,60.13
2018-10-11T01:10:26.219Z,61.00
2018-10-11T01:12:55.412Z,63.57
2018-10-11T01:15:24.608Z,65.30
2018-10-11T01:17:53.770Z,65.27
2018-10-11T01:20:22.900Z,69.43
2018-10-11T01:22:52.085Z,67.13
2018-10-11T01:25:21.251Z,64.07
2018-10-11T01:27:50.513Z,64.80
2018-10-11T01:30:19.708Z,63.67
2018-10-11T01:32:48.874Z,66.63
2018-10-11T01:35:18.024Z,66.23
2018-10-11T01:37:47.273Z,65.57
2018-10-11T01:40:16.471Z,67.57
2018-10-11T01:42:45.668Z,70.10
2018-10-11T01:45:14.870Z,65.37
2018-10-11T01:47:44.120Z,65.57
2018-10-11T01:50:13.314Z,63.07
2018-10-11T01:52:42.511Z,66.33
2018-10-11T01:55:11.716Z,63.60
2018-10-11T01:57:40.857Z,66.63
2018-10-11T02:00:09.948Z,67.87
2018-10-11T02:02:39.159Z,69.50
2018-10-11T02:05:08.454Z,70.03
2018-10-11T02:07:37.607Z,70.70
2018-10-11T02:10:07.058Z,73.10
2018-10-11T02:12:36.215Z,71.63
2018-10-11T02:15:05.811Z,78.87
2018-10-11T02:17:35.007Z,82.30
2018-10-11T02:20:04.220Z,85.33
2018-10-11T02:22:33.351Z,79.37
2018-10-11T02:25:02.544Z,78.00
2018-10-11T02:27:31.677Z,77.97
2018-10-11T02:30:00.848Z,81.70
2018-10-11T02:32:30.045Z,77.63
2018-10-11T02:34:59.284Z,84.23
2018-10-11T02:37:28.536Z,80.60
2018-10-11T02:39:57.706Z,82.00
2018-10-11T02:42:27.773Z,83.33
2018-10-11T02:44:57.036Z,84.60
2018-10-11T02:47:26.256Z,78.93
2018-10-11T02:49:55.417Z,76.77
2018-10-11T02:52:24.659Z,73.83
2018-10-11T02:54:54.461Z,75.20
2018-10-11T02:57:34.379Z,74.73
2018-10-11T03:00:04.867Z,75.33
2018-10-11T03:02:35.585Z,73.07
2018-10-11T03:05:05.821Z,73.50
2018-10-11T03:07:35.401Z,69.50
2018-10-11T03:10:04.702Z,73.20
2018-10-11T03:12:33.938Z,71.10
2018-10-11T03:15:03.167Z,71.27
2018-10-11T03:17:32.341Z,71.70
2018-10-11T03:20:01.600Z,70.30
2018-10-11T03:22:30.801Z,73.40
2018-10-11T03:25:00.562Z,78.87
2018-10-11T03:27:29.755Z,98.43
2018-10-11T03:29:58.901Z,86.93
2018-10-11T03:32:28.118Z,80.20
2018-10-11T03:34:57.307Z,74.23
2018-10-11T03:37:26.499Z,76.40
2018-10-11T03:39:55.764Z,74.13
2018-10-11T03:42:24.929Z,72.87
2018-10-11T03:44:54.210Z,71.23
2018-10-11T03:47:23.437Z,71.40
2018-10-11T03:49:52.577Z,70.33
2018-10-11T03:52:21.696Z,70.40
2018-10-11T03:54:50.886Z,66.17
2018-10-11T03:57:20.030Z,70.10
2018-10-11T03:59:49.210Z,70.67
2018-10-11T04:02:18.408Z,65.70
2018-10-11T04:04:47.553Z,67.87
2018-10-11T04:07:16.699Z,69.93
2018-10-11T04:09:45.894Z,67.73
2018-10-11T04:12:15.067Z,66.20
2018-10-11T04:14:44.277Z,63.87
2018-10-11T04:17:13.457Z,64.60
2018-10-11T04:19:42.712Z,64.00
2018-10-11T04:22:12.489Z,65.53
2018-10-11T04:24:41.668Z,62.63
2018-10-11T04:27:10.999Z,68.17
2018-10-11T04:29:40.188Z,68.00
2018-10-11T04:32:09.345Z,65.03
2018-10-11T04:34:38.510Z,68.43
2018-10-11T04:37:08.176Z,68.27
2018-10-11T04:39:37.303Z,65.50
2018-10-11T04:42:06.489Z,67.40
2018-10-11T04:44:36.718Z,67.10
2018-10-11T04:47:06.946Z,66.00
2018-10-11T04:49:36.352Z,65.13
2018-10-11T04:52:05.574Z,66.13
2018-10-11T04:54:34.721Z,64.80
2018-10-11T04:57:03.960Z,66.67
2018-10-11T04:59:33.136Z,65.73
2018-10-11T05:02:02.290Z,69.07
2018-10-11T05:04:31.427Z,70.27
2018-10-11T05:07:01.069Z,70.07
2018-10-11T05:09:30.199Z,68.27
2018-10-11T05:12:01.847Z,69.70
2018-10-11T05:14:31.781Z,71.07
2018-10-11T05:17:01.061Z,66.87
2018-10-11T05:19:30.280Z,69.40
2018-10-11T05:21:59.534Z,67.93
2018-10-11T05:24:28.696Z,70.17
2018-10-11T05:26:57.969Z,68.90
2018-10-11T05:29:27.160Z,67.97
2018-10-11T05:31:57.439Z,64.40
2018-10-11T05:34:26.575Z,67.87
2018-10-11T05:36:55.721Z,66.83
2018-10-11T05:39:25.192Z,65.43
2018-10-11T05:41:54.517Z,65.17
2018-10-11T05:44:23.743Z,69.67
2018-10-11T05:46:53.153Z,69.33
2018-10-11T05:49:22.354Z,66.07
2018-10-11T05:51:51.816Z,77.90
2018-10-11T05:54:21.253Z,78.33
2018-10-11T05:56:51.280Z,79.13
2018-10-11T05:59:20.701Z,82.60
2018-10-11T06:01:49.977Z,81.63
2018-10-11T06:04:19.209Z,79.93
2018-10-11T06:06:49.342Z,80.17
2018-10-11T06:09:18.835Z,83.37
2018-10-11T06:11:48.201Z,80.80
2018-10-11T06:14:17.581Z,81.17
2018-10-11T06:16:46.823Z,84.57
2018-10-11T06:19:16.466Z,83.23
2018-10-11T06:21:45.708Z,82.73
2018-10-11T06:24:14.882Z,82.17
2018-10-11T06:26:44.122Z,79.43
2018-10-11T06:29:13.395Z,88.97
2018-10-11T06:31:42.639Z,88.60
2018-10-11T06:34:11.846Z,88.57
2018-10-11T06:36:42.084Z,86.83
2018-10-11T06:39:12.140Z,84.37
2018-10-11T06:41:41.387Z,86.10
2018-10-11T06:44:11.059Z,83.63
2018-10-11T06:46:40.254Z,86.60
2018-10-11T06:49:09.616Z,84.47
2018-10-11T06:51:38.866Z,82.33
2018-10-11T06:54:08.394Z,82.07
2018-10-11T06:56:37.540Z,83.73
2018-10-11T06:59:06.747Z,82.87
2018-10-11T07:01:35.930Z,83.37
2018-10-11T07:04:05.180Z,87.93
2018-10-11T07:06:34.395Z,85.90
2018-10-11T07:09:04.664Z,88.20
2018-10-11T07:11:33.801Z,88.07
2018-10-11T07:14:03.037Z,93.20
2018-10-11T07:16:32.249Z,100.43
2018-10-11T07:19:01.374Z,109.90
2018-10-11T07:21:30.541Z,119.83
2018-10-11T07:23:59.766Z,121.80
2018-10-11T07:26:29.001Z,124.87
2018-10-11T07:28:58.145Z,128.37
2018-10-11T07:31:27.365Z,126.87
2018-10-11T07:33:56.521Z,123.60
2018-10-11T07:36:25.699Z,96.43
2018-10-11T07:38:54.868Z,92.93
2018-10-11T07:41:24.019Z,91.90
2018-10-11T07:43:53.213Z,88.93
2018-10-11T07:46:22.412Z,75.03
2018-10-11T07:48:51.583Z,73.73
2018-10-11T07:51:20.711Z,75.43
2018-10-11T07:53:49.884Z,78.40
2018-10-11T07:56:19.068Z,75.37
2018-10-11T07:58:48.201Z,74.87
2018-10-11T08:01:17.378Z,73.20
2018-10-11T08:03:46.547Z,72.63
2018-10-11T08:06:15.759Z,77.10
2018-10-11T08:08:45.025Z,71.10
2018-10-11T08:14:19.769Z,71.67
2018-10-11T08:16:49.211Z,70.50
2018-10-11T08:19:18.196Z,64.03
2018-10-11T08:21:47.058Z,69.03
2018-10-11T08:24:15.968Z,66.10
2018-10-11T08:26:44.975Z,62.40
2018-10-11T08:29:13.891Z,61.17
2018-10-11T08:31:42.886Z,62.57
2018-10-11T08:34:11.770Z,57.77
2018-10-11T08:36:40.696Z,55.17
2018-10-11T08:39:11.860Z,55.57
2018-10-11T08:41:40.998Z,53.97
2018-10-11T08:44:11.704Z,54.57
2018-10-11T08:46:40.614Z,51.50
2018-10-11T08:49:09.583Z,46.87
2018-10-11T08:51:38.880Z,43.23
2018-10-11T08:54:12.964Z,40.23
2018-10-11T08:56:42.626Z,39.00
2018-10-11T08:59:11.558Z,36.80
2018-10-11T09:01:40.620Z,35.43
2018-10-11T09:04:09.577Z,36.40
2018-10-11T09:06:38.496Z,34.00
2018-10-11T09:09:08.928Z,34.43
2018-10-11T09:11:37.945Z,30.03
2018-10-11T09:14:06.982Z,28.83
2018-10-11T09:16:36.226Z,27.90
2018-10-11T09:19:05.210Z,26.67
2018-10-11T09:21:34.108Z,27.23
2018-10-11T09:24:03.040Z,26.33
2018-10-11T09:26:31.979Z,26.13
2018-10-11T09:29:00.873Z,27.33
2018-10-11T09:31:29.775Z,25.97
2018-10-11T09:33:58.689Z,26.83
2018-10-11T09:36:27.690Z,25.23
2018-10-11T09:38:56.608Z,24.60
2018-10-11T09:41:25.556Z,24.43
2018-10-11T09:43:54.428Z,24.90
2018-10-11T09:46:23.308Z,22.67
2018-10-11T09:48:52.353Z,26.40
2018-10-11T09:51:21.251Z,24.10
2018-10-11T09:53:50.177Z,23.33
2018-10-11T09:56:19.067Z,21.43
2018-10-11T09:58:47.968Z,23.50
2018-10-11T10:01:22.163Z,21.83
2018-10-11T10:03:51.053Z,21.50
2018-10-11T10:06:19.999Z,19.90
2018-10-11T10:08:48.909Z,19.67
2018-10-11T10:11:17.781Z,19.03
2018-10-11T10:13:46.704Z,18.17
2018-10-11T10:16:15.612Z,17.03
2018-10-11T10:18:44.506Z,17.40
2018-10-11T10:21:13.504Z,17.73
2018-10-11T10:23:42.400Z,17.57
2018-10-11T10:26:11.298Z,20.63
2018-10-11T10:28:40.196Z,18.33
2018-10-11T10:31:09.113Z,17.10
2018-10-11T10:33:38.048Z,16.50
2018-10-11T10:36:06.921Z,17.03
2018-10-11T10:38:35.809Z,16.17
2018-10-11T10:41:04.765Z,18.03
2018-10-11T10:43:33.635Z,17.17
2018-10-11T10:46:02.505Z,17.70
2018-10-11T10:48:31.471Z,17.80
2018-10-11T10:51:00.338Z,17.10
2018-10-11T10:53:29.215Z,16.90
2018-10-11T10:55:58.184Z,14.10
2018-10-11T10:58:27.066Z,14.37
2018-10-11T11:00:55.950Z,12.27
2018-10-11T11:03:24.881Z,12.20
2018-10-11T11:05:53.778Z,12.17
2018-10-11T11:08:22.655Z,12.77
2018-10-11T11:10:51.591Z,12.40
2018-10-11T11:13:20.591Z,12.83
2018-10-11T11:15:49.577Z,14.73
2018-10-11T11:18:19.419Z,13.30
2018-10-11T11:20:48.345Z,13.67
2018-10-11T11:23:17.263Z,14.30
2018-10-11T11:25:46.202Z,14.27
2018-10-11T11:28:15.138Z,13.40
2018-10-11T11:30:44.052Z,13.10
2018-10-11T11:33:13.084Z,13.90
2018-10-11T11:35:41.961Z,13.30
2018-10-11T11:38:10.849Z,12.63
2018-10-11T11:40:39.801Z,12.17
2018-10-11T11:43:09.154Z,12.73
2018-10-11T11:45:38.060Z,13.87
2018-10-11T11:48:07.391Z,13.03
2018-10-11T11:50:36.325Z,13.30
2018-10-11T11:53:05.265Z,13.50
2018-10-11T11:55:34.280Z,13.67
2018-10-11T11:58:03.223Z,13.73
2018-10-11T12:00:32.151Z,13.10
2018-10-11T12:03:01.843Z,13.47
2018-10-11T12:05:31.385Z,13.90
2018-10-11T12:08:00.267Z,13.43
2018-10-11T12:10:29.255Z,13.97
2018-10-11T12:12:59.320Z,13.73
2018-10-11T12:15:29.251Z,13.97
2018-10-11T12:17:59.428Z,11.80
2018-10-11T12:20:29.703Z,12.17
2018-10-11T12:22:59.687Z,13.20
2018-10-11T12:25:29.059Z,13.33
2018-10-11T12:27:57.992Z,12.13
2018-10-11T12:30:26.911Z,12.63
2018-10-11T12:32:55.800Z,12.23
2018-10-11T12:35:25.315Z,11.63
2018-10-11T12:37:54.246Z,12.80
2018-10-11T12:40:24.041Z,13.33
2018-10-11T12:42:52.128Z,12.07
2018-10-11T12:45:21.118Z,11.77
2018-10-11T12:47:50.011Z,12.80
2018-10-11T12:50:18.916Z,12.10
2018-10-11T12:52:47.835Z,10.50
2018-10-11T12:55:16.809Z,10.93
2018-10-11T12:57:45.741Z,10.53
2018-10-11T13:00:15.732Z,11.50
2018-10-11T13:02:44.912Z,10.40
2018-10-11T13:05:13.773Z,10.97
2018-10-11T13:07:43.093Z,11.37
2018-10-11T13:10:12.032Z,10.20
2018-10-11T13:12:40.990Z,10.17
2018-10-11T13:15:10.008Z,10.33
2018-10-11T13:17:42.813Z,10.90
2018-10-11T13:20:08.611Z,10.40
2018-10-11T13:22:37.533Z,11.20
2018-10-11T13:25:06.541Z,10.37
2018-10-11T13:27:35.457Z,11.23
2018-10-11T13:30:04.458Z,11.07
2018-10-11T13:32:33.399Z,11.77
2018-10-11T13:35:02.362Z,11.90
2018-10-11T13:37:31.286Z,11.80
2018-10-11T13:40:00.234Z,10.97
2018-10-11T13:42:29.130Z,11.77
2018-10-11T13:44:58.050Z,11.23
2018-10-11T13:47:27.066Z,11.27
2018-10-11T13:49:55.913Z,11.07
2018-10-11T13:52:24.948Z,10.43
2018-10-11T13:54:53.871Z,11.13
2018-10-11T13:57:25.932Z,10.60
2018-10-11T13:59:51.854Z,10.40
2018-10-11T14:02:20.799Z,10.87
2018-10-11T14:04:49.944Z,11.17
2018-10-11T14:07:18.975Z,11.10
2018-10-11T14:09:47.955Z,11.93
2018-10-11T14:12:16.897Z,11.53
2018-10-11T14:14:45.796Z,11.37
2018-10-11T14:17:14.669Z,11.83
2018-10-11T14:19:43.623Z,11.67
2018-10-11T14:22:12.901Z,11.50
2018-10-11T14:24:42.509Z,11.73
2018-10-11T14:27:11.500Z,10.83
2018-10-11T14:29:40.454Z,11.47
2018-10-11T14:32:09.466Z,12.03
2018-10-11T14:34:38.479Z,10.80
2018-10-11T14:37:07.712Z,11.60
2018-10-11T14:39:36.780Z,12.83
2018-10-11T14:42:05.681Z,12.20
2018-10-11T14:44:35.457Z,12.20
2018-10-11T14:47:04.482Z,11.80
2018-10-11T14:49:33.523Z,11.30
2018-10-11T14:52:02.436Z,12.30
2018-10-11T14:54:34.306Z,11.57
2018-10-11T14:57:04.519Z,11.43
2018-10-11T14:59:33.485Z,11.87
2018-10-11T15:02:03.385Z,12.13
2018-10-11T15:04:33.530Z,12.13
2018-10-11T15:07:02.502Z,12.67
2018-10-11T15:09:31.470Z,12.73
2018-10-11T15:12:00.435Z,11.90
2018-10-11T15:14:29.384Z,13.00
2018-10-11T15:16:58.324Z,12.83
2018-10-11T15:19:27.317Z,12.80
2018-10-11T15:21:56.209Z,12.30
2018-10-11T15:24:25.119Z,13.10
2018-10-11T15:26:54.069Z,13.13
2018-10-11T15:29:23.031Z,12.93
2018-10-11T15:31:51.959Z,14.17
2018-10-11T15:34:21.290Z,16.37
2018-10-11T15:36:50.244Z,16.07
2018-10-11T15:39:19.152Z,17.27
2018-10-11T15:41:48.068Z,16.93
2018-10-11T15:44:17.137Z,17.13
2018-10-11T15:46:46.129Z,16.97
2018-10-11T15:49:15.935Z,18.07
2018-10-11T15:51:44.901Z,15.97
2018-10-11T15:54:13.817Z,15.80
2018-10-11T15:56:42.844Z,15.27
2018-10-11T15:59:11.906Z,16.37
2018-10-11T16:01:41.331Z,17.10
2018-10-11T16:04:10.365Z,17.63
2018-10-11T16:06:39.379Z,16.47
2018-10-11T16:09:10.489Z,16.80
2018-10-11T16:11:40.611Z,17.03
2018-10-11T16:14:10.252Z,15.90
2018-10-11T16:16:39.264Z,15.33
2018-10-11T16:19:08.564Z,16.23
2018-10-11T16:21:37.700Z,17.40
2018-10-11T16:24:06.837Z,17.67
2018-10-11T16:26:35.939Z,30.87
2018-10-11T16:29:05.033Z,23.97
2018-10-11T16:31:34.079Z,21.13
2018-10-11T16:34:03.497Z,22.77
2018-10-11T16:36:53.435Z,31.70
2018-10-11T16:39:22.477Z,136.23
2018-10-11T16:41:52.431Z,55.03
2018-10-11T16:44:22.320Z,23.03
2018-10-11T16:46:51.368Z,26.20
2018-10-11T16:49:20.335Z,41.67
2018-10-11T16:51:49.336Z,61.77
2018-10-11T16:54:18.321Z,59.60
2018-10-11T16:56:55.270Z,40.93
2018-10-11T16:59:25.042Z,61.40
2018-10-11T17:01:54.013Z,40.63
2018-10-11T17:04:22.951Z,44.80
2018-10-11T17:06:52.139Z,33.70
2018-10-11T17:09:21.258Z,28.73
2018-10-11T17:11:50.319Z,22.03
2018-10-11T17:14:19.312Z,41.30
2018-10-11T17:16:49.015Z,23.10
2018-10-11T17:19:18.148Z,21.67
2018-10-11T17:21:47.464Z,21.13
2018-10-11T17:24:17.299Z,20.43
2018-10-11T17:26:46.406Z,19.67
2018-10-11T17:29:15.562Z,20.67
2018-10-11T17:31:44.510Z,21.33
2018-10-11T17:34:13.471Z,21.47
2018-10-11T17:36:42.662Z,20.63
2018-10-11T17:39:13.022Z,22.10
2018-10-11T17:41:42.203Z,20.67
2018-10-11T17:44:11.780Z,20.67
2018-10-11T17:46:40.763Z,20.60
2018-10-11T17:49:09.739Z,28.40
2018-10-11T17:51:38.626Z,23.90
2018-10-11T17:54:07.592Z,30.53
2018-10-11T17:56:36.651Z,40.03
2018-10-11T17:59:05.653Z,74.77
2018-10-11T18:01:34.541Z,37.50
2018-10-11T18:04:03.477Z,43.33
2018-10-11T18:06:32.568Z,54.87
2018-10-11T18:09:01.472Z,47.03
2018-10-11T18:11:30.542Z,30.90
2018-10-11T18:13:59.620Z,66.73
2018-10-11T18:16:28.733Z,40.17
2018-10-11T18:18:57.770Z,35.70
2018-10-11T18:21:26.860Z,34.87
2018-10-11T18:23:57.262Z,50.10
2018-10-11T18:26:26.232Z,271.20
2018-10-11T18:28:55.782Z,64.23
2018-10-11T18:31:24.903Z,30.13
2018-10-11T18:33:54.501Z,33.73
2018-10-11T18:36:23.498Z,29.20
2018-10-11T18:38:52.441Z,37.17
2018-10-11T18:41:22.059Z,38.07
2018-10-11T18:43:52.022Z,28.87
2018-10-11T18:46:21.024Z,30.07
2018-10-11T18:48:49.934Z,30.37
2018-10-11T18:51:18.942Z,29.07
2018-10-11T18:53:47.845Z,23.80
2018-10-11T18:56:16.859Z,27.23
2018-10-11T18:58:45.821Z,39.63
2018-10-11T19:01:14.861Z,27.40
2018-10-11T19:03:43.811Z,24.10
2018-10-11T19:06:12.852Z,24.80
2018-10-11T19:08:44.781Z,23.93
2018-10-11T19:11:13.810Z,22.47
2018-10-11T19:13:42.901Z,21.00
2018-10-11T19:16:12.079Z,21.70
2018-10-11T19:18:41.139Z,22.70
2018-10-11T19:21:10.091Z,23.07
2018-10-11T19:23:39.038Z,24.47
2018-10-11T19:26:08.069Z,24.60
2018-10-11T19:28:36.978Z,25.10
2018-10-11T19:31:05.996Z,25.87
2018-10-11T19:33:34.863Z,27.97
2018-10-11T19:36:03.745Z,23.60
2018-10-11T19:38:32.675Z,23.43
2018-10-11T19:41:01.521Z,23.20
2018-10-11T19:43:30.461Z,23.67
2018-10-11T19:45:59.381Z,24.43
2018-10-11T19:48:28.418Z,22.40
2018-10-11T19:50:57.244Z,22.63
2018-10-11T19:53:26.211Z,21.53
2018-10-11T19:55:55.100Z,22.07
2018-10-11T19:58:24.011Z,20.87
2018-10-11T20:00:52.924Z,21.93
2018-10-11T20:03:21.820Z,21.87
2018-10-11T20:05:50.681Z,21.93
2018-10-11T20:08:19.595Z,20.47
2018-10-11T20:10:48.491Z,19.40
2018-10-11T20:13:17.848Z,21.97
2018-10-11T20:15:46.839Z,21.80
2018-10-11T20:18:15.718Z,22.37
2018-10-11T20:20:44.588Z,21.07
2018-10-11T20:23:13.518Z,22.43
2018-10-11T20:25:42.400Z,22.80
2018-10-11T20:28:11.322Z,23.07
2018-10-11T20:30:40.224Z,23.77
2018-10-11T20:33:09.127Z,24.27
2018-10-11T20:35:38.069Z,24.63
2018-10-11T20:38:06.981Z,24.80
2018-10-11T20:40:35.903Z,24.80
2018-10-11T20:43:04.763Z,24.47
2018-10-11T20:45:33.664Z,25.97
2018-10-11T20:48:02.592Z,26.57
2018-10-11T20:50:32.205Z,56.87
2018-10-11T20:53:01.068Z,47.50
2018-10-11T20:55:30.099Z,38.63
2018-10-11T20:57:59.055Z,42.40
2018-10-11T21:00:27.895Z,42.80
2018-10-11T21:02:56.757Z,34.63
2018-10-11T21:05:25.663Z,28.37
2018-10-11T21:07:54.494Z,28.30
2018-10-11T21:10:23.342Z,28.93
2018-10-11T21:12:52.216Z,25.73
2018-10-11T21:15:21.213Z,25.87
2018-10-11T21:17:50.522Z,24.27
2018-10-11T21:20:19.551Z,21.80
2018-10-11T21:22:48.403Z,23.27
2018-10-11T21:25:17.236Z,23.20
2018-10-11T21:27:46.163Z,24.70
2018-10-11T21:30:15.118Z,23.57
2018-10-11T21:32:44.008Z,23.43
2018-10-11T21:35:12.945Z,23.17
2018-10-11T21:37:41.849Z,21.83
2018-10-11T21:40:10.757Z,23.03
2018-10-11T21:42:39.790Z,22.70
2018-10-11T21:45:08.672Z,24.03
2018-10-11T21:47:37.540Z,21.97
2018-10-11T21:50:06.484Z,21.70
2018-10-11T21:52:35.399Z,23.00
2018-10-11T21:55:04.279Z,21.40
2018-10-11T21:57:33.257Z,21.07
2018-10-11T22:00:03.186Z,21.40
2018-10-11T22:02:32.065Z,20.57
2018-10-11T22:05:00.998Z,20.93
2018-10-11T22:07:29.863Z,19.60
2018-10-11T22:09:58.757Z,19.87
2018-10-11T22:12:27.649Z,20.53
2018-10-11T22:14:56.678Z,20.33
2018-10-11T22:17:25.373Z,20.20
2018-10-11T22:19:54.290Z,19.37
2018-10-11T22:22:23.210Z,19.40
2018-10-11T22:24:52.065Z,19.30
2018-10-11T22:27:20.962Z,18.77
2018-10-11T22:29:49.813Z,18.83
2018-10-11T22:32:18.684Z,19.53
2018-10-11T22:34:47.579Z,20.13
2018-10-11T22:37:16.456Z,19.10
2018-10-11T22:39:45.339Z,19.67
2018-10-11T22:42:14.283Z,19.90
2018-10-11T22:44:43.235Z,19.17
2018-10-11T22:47:12.119Z,20.70
2018-10-11T22:49:41.057Z,18.50
2018-10-11T22:52:10.078Z,17.30
2018-10-11T22:54:38.993Z,19.33
2018-10-11T22:57:07.893Z,18.77
2018-10-11T22:59:36.853Z,18.40
2018-10-11T23:02:05.756Z,18.43
2018-10-11T23:04:34.680Z,17.93
2018-10-11T23:07:03.641Z,17.87
2018-10-11T23:09:32.540Z,17.17
2018-10-11T23:12:01.452Z,16.37
2018-10-11T23:14:30.353Z,16.73
2018-10-11T23:16:59.237Z,16.83
2018-10-11T23:19:28.180Z,15.40
2018-10-11T23:21:57.143Z,15.50
2018-10-11T23:24:26.777Z,16.27
2018-10-11T23:26:56.008Z,15.07
2018-10-11T23:29:24.926Z,15.97
2018-10-11T23:31:53.806Z,16.30
2018-10-11T23:34:23.046Z,16.13
2018-10-11T23:36:51.972Z,15.67
2018-10-11T23:39:20.856Z,15.60
2018-10-11T23:41:49.749Z,15.73
2018-10-11T23:44:18.688Z,15.33
2018-10-11T23:46:47.603Z,15.37
2018-10-11T23:49:16.512Z,15.63
2018-10-11T23:51:45.517Z,15.17
2018-10-11T23:54:14.432Z,16.30
2018-10-11T23:56:43.361Z,15.57
2018-10-11T23:59:12.375Z,15.80
